sensor_id;sensor_type;location;lat;lon;timestamp;P1;durP1;ratioP1;P2;durP2;ratioP2
45970;SDS011;31681;48.982;8.394;2023-02-13T00:01:43;20.17;;;10.90;;
45970;SDS011;31681;48.982;8.394;2023-02-13T00:04:09;19.73;;;10.93;;
45970;SDS011;31681;48.982;8.394;2023-02-13T00:06:34;18.07;;;10.20;;
45970;SDS011;31681;48.982;8.394;2023-02-13T00:08:59;17.97;;;11.37;;
45970;SDS011;31681;48.982;8.394;2023-02-13T00:11:25;18.73;;;11.00;;
45970;SDS011;31681;48.982;8.394;2023-02-13T00:13:50;20.13;;;11.07;;
45970;SDS011;31681;48.982;8.394;2023-02-13T00:16:15;21.00;;;11.40;;
45970;SDS011;31681;48.982;8.394;2023-02-13T00:18:41;20.37;;;12.00;;
45970;SDS011;31681;48.982;8.394;2023-02-13T00:21:07;18.97;;;10.80;;
45970;SDS011;31681;48.982;8.394;2023-02-13T00:23:33;22.03;;;11.83;;
45970;SDS011;31681;48.982;8.394;2023-02-13T00:25:59;20.30;;;11.53;;
45970;SDS011;31681;48.982;8.394;2023-02-13T00:28:25;21.60;;;11.40;;
45970;SDS011;31681;48.982;8.394;2023-02-13T00:30:50;19.40;;;11.00;;
45970;SDS011;31681;48.982;8.394;2023-02-13T00:33:16;21.87;;;11.47;;
45970;SDS011;31681;48.982;8.394;2023-02-13T00:35:41;20.83;;;12.07;;
45970;SDS011;31681;48.982;8.394;2023-02-13T00:38:06;22.17;;;11.50;;
45970;SDS011;31681;48.982;8.394;2023-02-13T00:40:32;21.67;;;11.27;;
45970;SDS011;31681;48.982;8.394;2023-02-13T00:42:58;20.17;;;10.93;;
45970;SDS011;31681;48.982;8.394;2023-02-13T00:45:23;22.73;;;12.37;;
45970;SDS011;31681;48.982;8.394;2023-02-13T00:47:49;20.23;;;11.17;;
45970;SDS011;31681;48.982;8.394;2023-02-13T00:50:14;20.53;;;10.83;;
45970;SDS011;31681;48.982;8.394;2023-02-13T00:52:39;22.00;;;11.47;;
45970;SDS011;31681;48.982;8.394;2023-02-13T00:55:05;21.40;;;11.83;;
45970;SDS011;31681;48.982;8.394;2023-02-13T00:57:30;21.83;;;11.57;;
45970;SDS011;31681;48.982;8.394;2023-02-13T00:59:56;23.87;;;11.90;;
45970;SDS011;31681;48.982;8.394;2023-02-13T01:02:21;24.73;;;11.93;;
45970;SDS011;31681;48.982;8.394;2023-02-13T01:04:47;20.57;;;10.97;;
45970;SDS011;31681;48.982;8.394;2023-02-13T01:07:13;24.60;;;11.80;;
45970;SDS011;31681;48.982;8.394;2023-02-13T01:09:41;24.37;;;12.00;;
45970;SDS011;31681;48.982;8.394;2023-02-13T01:12:07;21.90;;;11.47;;
45970;SDS011;31681;48.982;8.394;2023-02-13T01:14:32;20.93;;;12.00;;
45970;SDS011;31681;48.982;8.394;2023-02-13T01:16:58;22.60;;;12.10;;
45970;SDS011;31681;48.982;8.394;2023-02-13T01:19:23;27.63;;;13.03;;
45970;SDS011;31681;48.982;8.394;2023-02-13T01:21:50;22.10;;;12.00;;
45970;SDS011;31681;48.982;8.394;2023-02-13T01:24:17;23.07;;;12.33;;
45970;SDS011;31681;48.982;8.394;2023-02-13T01:26:42;22.53;;;12.37;;
45970;SDS011;31681;48.982;8.394;2023-02-13T01:29:08;22.67;;;12.43;;
45970;SDS011;31681;48.982;8.394;2023-02-13T01:31:34;24.60;;;12.23;;
45970;SDS011;31681;48.982;8.394;2023-02-13T01:33:59;26.03;;;12.97;;
45970;SDS011;31681;48.982;8.394;2023-02-13T01:36:25;22.27;;;12.60;;
45970;SDS011;31681;48.982;8.394;2023-02-13T01:38:52;24.77;;;12.63;;
45970;SDS011;31681;48.982;8.394;2023-02-13T01:41:18;24.67;;;13.07;;
45970;SDS011;31681;48.982;8.394;2023-02-13T01:46:09;27.37;;;13.50;;
45970;SDS011;31681;48.982;8.394;2023-02-13T01:48:35;23.20;;;11.67;;
45970;SDS011;31681;48.982;8.394;2023-02-13T01:51:02;24.47;;;12.20;;
45970;SDS011;31681;48.982;8.394;2023-02-13T01:56:20;26.20;;;12.30;;
45970;SDS011;31681;48.982;8.394;2023-02-13T02:01:17;25.90;;;13.43;;
45970;SDS011;31681;48.982;8.394;2023-02-13T02:03:45;26.47;;;12.73;;
45970;SDS011;31681;48.982;8.394;2023-02-13T02:06:15;24.70;;;12.27;;
45970;SDS011;31681;48.982;8.394;2023-02-13T02:08:42;25.30;;;13.27;;
45970;SDS011;31681;48.982;8.394;2023-02-13T02:11:19;27.83;;;13.23;;
45970;SDS011;31681;48.982;8.394;2023-02-13T02:13:45;26.73;;;12.07;;
45970;SDS011;31681;48.982;8.394;2023-02-13T02:16:10;27.80;;;12.73;;
45970;SDS011;31681;48.982;8.394;2023-02-13T02:18:36;28.00;;;13.40;;
45970;SDS011;31681;48.982;8.394;2023-02-13T02:33:44;26.07;;;13.53;;
45970;SDS011;31681;48.982;8.394;2023-02-13T02:36:39;26.97;;;14.03;;
45970;SDS011;31681;48.982;8.394;2023-02-13T02:41:30;29.60;;;13.80;;
45970;SDS011;31681;48.982;8.394;2023-02-13T02:46:37;26.97;;;12.87;;
45970;SDS011;31681;48.982;8.394;2023-02-13T02:49:17;25.07;;;13.10;;
45970;SDS011;31681;48.982;8.394;2023-02-13T02:52:04;29.90;;;13.17;;
45970;SDS011;31681;48.982;8.394;2023-02-13T02:54:49;27.43;;;13.50;;
45970;SDS011;31681;48.982;8.394;2023-02-13T02:57:45;33.57;;;13.80;;
45970;SDS011;31681;48.982;8.394;2023-02-13T03:00:35;24.87;;;13.43;;
45970;SDS011;31681;48.982;8.394;2023-02-13T03:03:24;23.60;;;12.27;;
45970;SDS011;31681;48.982;8.394;2023-02-13T03:09:46;26.20;;;13.60;;
45970;SDS011;31681;48.982;8.394;2023-02-13T03:12:34;27.90;;;13.43;;
45970;SDS011;31681;48.982;8.394;2023-02-13T03:15:24;27.40;;;13.47;;
45970;SDS011;31681;48.982;8.394;2023-02-13T03:17:51;26.53;;;13.20;;
45970;SDS011;31681;48.982;8.394;2023-02-13T03:26:05;28.53;;;14.13;;
45970;SDS011;31681;48.982;8.394;2023-02-13T03:32:05;31.47;;;14.07;;
45970;SDS011;31681;48.982;8.394;2023-02-13T03:34:40;31.83;;;14.40;;
45970;SDS011;31681;48.982;8.394;2023-02-13T03:37:32;25.73;;;13.53;;
45970;SDS011;31681;48.982;8.394;2023-02-13T03:40:35;29.00;;;13.40;;
45970;SDS011;31681;48.982;8.394;2023-02-13T03:43:26;31.40;;;14.20;;
45970;SDS011;31681;48.982;8.394;2023-02-13T03:45:57;27.57;;;13.30;;
45970;SDS011;31681;48.982;8.394;2023-02-13T03:48:30;29.10;;;13.37;;
45970;SDS011;31681;48.982;8.394;2023-02-13T03:51:22;31.07;;;15.60;;
45970;SDS011;31681;48.982;8.394;2023-02-13T03:53:54;30.17;;;13.83;;
45970;SDS011;31681;48.982;8.394;2023-02-13T03:56:23;28.90;;;13.43;;
45970;SDS011;31681;48.982;8.394;2023-02-13T03:59:14;29.13;;;14.50;;
45970;SDS011;31681;48.982;8.394;2023-02-13T04:01:50;31.13;;;14.43;;
45970;SDS011;31681;48.982;8.394;2023-02-13T04:04:32;24.60;;;13.00;;
45970;SDS011;31681;48.982;8.394;2023-02-13T04:07:19;33.37;;;13.73;;
45970;SDS011;31681;48.982;8.394;2023-02-13T04:10:06;25.37;;;13.37;;
45970;SDS011;31681;48.982;8.394;2023-02-13T04:17:45;29.27;;;15.07;;
45970;SDS011;31681;48.982;8.394;2023-02-13T04:20:16;30.17;;;15.10;;
45970;SDS011;31681;48.982;8.394;2023-02-13T04:22:43;31.10;;;15.20;;
45970;SDS011;31681;48.982;8.394;2023-02-13T04:25:10;29.67;;;15.67;;
45970;SDS011;31681;48.982;8.394;2023-02-13T04:27:37;28.70;;;15.03;;
45970;SDS011;31681;48.982;8.394;2023-02-13T04:30:04;31.17;;;15.03;;
45970;SDS011;31681;48.982;8.394;2023-02-13T04:32:30;31.10;;;15.23;;
45970;SDS011;31681;48.982;8.394;2023-02-13T04:34:58;28.77;;;14.50;;
45970;SDS011;31681;48.982;8.394;2023-02-13T04:37:23;29.67;;;14.03;;
45970;SDS011;31681;48.982;8.394;2023-02-13T04:39:49;28.70;;;13.80;;
45970;SDS011;31681;48.982;8.394;2023-02-13T04:42:14;27.73;;;14.10;;
45970;SDS011;31681;48.982;8.394;2023-02-13T04:44:40;26.23;;;13.77;;
45970;SDS011;31681;48.982;8.394;2023-02-13T04:47:05;27.33;;;13.07;;
45970;SDS011;31681;48.982;8.394;2023-02-13T04:49:31;27.93;;;14.27;;
45970;SDS011;31681;48.982;8.394;2023-02-13T04:51:56;33.40;;;15.83;;
45970;SDS011;31681;48.982;8.394;2023-02-13T04:54:22;26.17;;;13.50;;
45970;SDS011;31681;48.982;8.394;2023-02-13T04:56:47;28.73;;;14.40;;
45970;SDS011;31681;48.982;8.394;2023-02-13T04:59:13;28.37;;;14.27;;
45970;SDS011;31681;48.982;8.394;2023-02-13T05:01:38;29.13;;;15.60;;
45970;SDS011;31681;48.982;8.394;2023-02-13T05:04:04;28.07;;;14.00;;
45970;SDS011;31681;48.982;8.394;2023-02-13T05:06:29;28.80;;;13.40;;
45970;SDS011;31681;48.982;8.394;2023-02-13T05:08:55;28.70;;;14.43;;
45970;SDS011;31681;48.982;8.394;2023-02-13T05:11:20;26.70;;;12.97;;
45970;SDS011;31681;48.982;8.394;2023-02-13T05:13:46;26.87;;;13.13;;
45970;SDS011;31681;48.982;8.394;2023-02-13T05:16:11;25.67;;;13.33;;
45970;SDS011;31681;48.982;8.394;2023-02-13T05:18:37;27.10;;;13.23;;
45970;SDS011;31681;48.982;8.394;2023-02-13T05:21:02;33.23;;;15.00;;
45970;SDS011;31681;48.982;8.394;2023-02-13T05:23:46;26.33;;;12.33;;
45970;SDS011;31681;48.982;8.394;2023-02-13T05:26:12;26.70;;;14.13;;
45970;SDS011;31681;48.982;8.394;2023-02-13T05:28:37;26.37;;;14.07;;
45970;SDS011;31681;48.982;8.394;2023-02-13T05:31:21;29.40;;;13.70;;
45970;SDS011;31681;48.982;8.394;2023-02-13T05:33:47;28.57;;;13.17;;
45970;SDS011;31681;48.982;8.394;2023-02-13T05:36:13;29.03;;;13.93;;
45970;SDS011;31681;48.982;8.394;2023-02-13T05:38:38;25.50;;;13.67;;
45970;SDS011;31681;48.982;8.394;2023-02-13T05:41:05;29.57;;;14.37;;
45970;SDS011;31681;48.982;8.394;2023-02-13T05:43:30;26.20;;;14.10;;
45970;SDS011;31681;48.982;8.394;2023-02-13T05:46:00;28.80;;;14.17;;
45970;SDS011;31681;48.982;8.394;2023-02-13T05:48:29;30.03;;;14.13;;
45970;SDS011;31681;48.982;8.394;2023-02-13T05:50:55;26.53;;;14.73;;
45970;SDS011;31681;48.982;8.394;2023-02-13T05:53:21;31.30;;;14.60;;
45970;SDS011;31681;48.982;8.394;2023-02-13T05:55:46;25.23;;;13.77;;
45970;SDS011;31681;48.982;8.394;2023-02-13T05:58:12;28.00;;;14.13;;
45970;SDS011;31681;48.982;8.394;2023-02-13T06:00:37;28.40;;;14.60;;
45970;SDS011;31681;48.982;8.394;2023-02-13T06:03:03;27.80;;;14.97;;
45970;SDS011;31681;48.982;8.394;2023-02-13T06:05:28;28.20;;;14.17;;
45970;SDS011;31681;48.982;8.394;2023-02-13T06:07:54;27.03;;;15.00;;
45970;SDS011;31681;48.982;8.394;2023-02-13T06:10:19;29.40;;;14.43;;
45970;SDS011;31681;48.982;8.394;2023-02-13T06:12:45;27.00;;;13.73;;
45970;SDS011;31681;48.982;8.394;2023-02-13T06:15:10;31.97;;;14.53;;
45970;SDS011;31681;48.982;8.394;2023-02-13T06:17:36;28.97;;;13.90;;
45970;SDS011;31681;48.982;8.394;2023-02-13T06:20:01;33.80;;;13.47;;
45970;SDS011;31681;48.982;8.394;2023-02-13T06:22:27;29.93;;;14.03;;
45970;SDS011;31681;48.982;8.394;2023-02-13T06:24:52;28.57;;;14.40;;
45970;SDS011;31681;48.982;8.394;2023-02-13T06:27:18;30.60;;;14.13;;
45970;SDS011;31681;48.982;8.394;2023-02-13T06:29:43;26.50;;;13.83;;
45970;SDS011;31681;48.982;8.394;2023-02-13T06:32:09;32.27;;;14.50;;
45970;SDS011;31681;48.982;8.394;2023-02-13T06:34:34;30.13;;;13.43;;
45970;SDS011;31681;48.982;8.394;2023-02-13T06:37:00;30.57;;;14.63;;
45970;SDS011;31681;48.982;8.394;2023-02-13T06:39:25;28.50;;;15.00;;
45970;SDS011;31681;48.982;8.394;2023-02-13T06:41:51;31.13;;;15.13;;
45970;SDS011;31681;48.982;8.394;2023-02-13T06:44:17;29.00;;;15.30;;
45970;SDS011;31681;48.982;8.394;2023-02-13T06:46:42;31.50;;;16.17;;
45970;SDS011;31681;48.982;8.394;2023-02-13T06:49:08;30.10;;;14.23;;
45970;SDS011;31681;48.982;8.394;2023-02-13T06:51:34;27.80;;;13.60;;
45970;SDS011;31681;48.982;8.394;2023-02-13T06:53:59;28.63;;;14.07;;
45970;SDS011;31681;48.982;8.394;2023-02-13T06:56:25;28.97;;;14.07;;
45970;SDS011;31681;48.982;8.394;2023-02-13T06:58:50;29.17;;;14.27;;
45970;SDS011;31681;48.982;8.394;2023-02-13T07:01:16;27.40;;;14.60;;
45970;SDS011;31681;48.982;8.394;2023-02-13T07:03:41;39.13;;;15.50;;
45970;SDS011;31681;48.982;8.394;2023-02-13T07:06:07;26.47;;;14.10;;
45970;SDS011;31681;48.982;8.394;2023-02-13T07:08:32;34.50;;;14.77;;
45970;SDS011;31681;48.982;8.394;2023-02-13T07:10:58;28.47;;;14.87;;
45970;SDS011;31681;48.982;8.394;2023-02-13T07:13:23;32.80;;;15.23;;
45970;SDS011;31681;48.982;8.394;2023-02-13T07:15:49;25.43;;;13.87;;
45970;SDS011;31681;48.982;8.394;2023-02-13T07:18:14;27.60;;;13.50;;
45970;SDS011;31681;48.982;8.394;2023-02-13T07:20:40;29.63;;;14.90;;
45970;SDS011;31681;48.982;8.394;2023-02-13T07:23:05;27.77;;;14.27;;
45970;SDS011;31681;48.982;8.394;2023-02-13T07:25:32;28.13;;;14.10;;
45970;SDS011;31681;48.982;8.394;2023-02-13T07:28:01;24.93;;;12.33;;
45970;SDS011;31681;48.982;8.394;2023-02-13T07:30:29;30.13;;;13.97;;
45970;SDS011;31681;48.982;8.394;2023-02-13T07:32:59;26.43;;;13.27;;
45970;SDS011;31681;48.982;8.394;2023-02-13T07:35:25;26.40;;;14.17;;
45970;SDS011;31681;48.982;8.394;2023-02-13T07:37:52;28.83;;;13.23;;
45970;SDS011;31681;48.982;8.394;2023-02-13T07:40:19;27.90;;;13.43;;
45970;SDS011;31681;48.982;8.394;2023-02-13T07:42:45;26.67;;;13.60;;
45970;SDS011;31681;48.982;8.394;2023-02-13T07:45:10;25.23;;;13.73;;
45970;SDS011;31681;48.982;8.394;2023-02-13T07:47:36;28.77;;;13.27;;
45970;SDS011;31681;48.982;8.394;2023-02-13T07:50:02;31.50;;;14.07;;
45970;SDS011;31681;48.982;8.394;2023-02-13T07:52:30;25.97;;;15.37;;
45970;SDS011;31681;48.982;8.394;2023-02-13T07:54:56;26.67;;;14.47;;
45970;SDS011;31681;48.982;8.394;2023-02-13T07:57:22;26.47;;;14.00;;
45970;SDS011;31681;48.982;8.394;2023-02-13T07:59:47;27.03;;;14.93;;
45970;SDS011;31681;48.982;8.394;2023-02-13T08:02:13;27.07;;;13.53;;
45970;SDS011;31681;48.982;8.394;2023-02-13T08:04:39;28.10;;;14.00;;
45970;SDS011;31681;48.982;8.394;2023-02-13T08:07:05;25.53;;;13.90;;
45970;SDS011;31681;48.982;8.394;2023-02-13T08:09:31;27.87;;;13.67;;
45970;SDS011;31681;48.982;8.394;2023-02-13T08:12:15;27.50;;;13.97;;
45970;SDS011;31681;48.982;8.394;2023-02-13T08:14:41;28.30;;;14.37;;
45970;SDS011;31681;48.982;8.394;2023-02-13T08:17:08;24.77;;;12.60;;
45970;SDS011;31681;48.982;8.394;2023-02-13T08:19:33;22.13;;;12.03;;
45970;SDS011;31681;48.982;8.394;2023-02-13T08:21:59;17.40;;;9.67;;
45970;SDS011;31681;48.982;8.394;2023-02-13T08:24:25;23.13;;;11.70;;
45970;SDS011;31681;48.982;8.394;2023-02-13T08:26:51;21.37;;;10.17;;
45970;SDS011;31681;48.982;8.394;2023-02-13T08:29:16;18.10;;;10.03;;
45970;SDS011;31681;48.982;8.394;2023-02-13T08:31:42;19.27;;;10.80;;
45970;SDS011;31681;48.982;8.394;2023-02-13T08:34:07;22.03;;;10.40;;
45970;SDS011;31681;48.982;8.394;2023-02-13T08:36:33;20.77;;;10.40;;
45970;SDS011;31681;48.982;8.394;2023-02-13T08:38:58;16.30;;;10.20;;
45970;SDS011;31681;48.982;8.394;2023-02-13T08:41:24;19.40;;;10.87;;
45970;SDS011;31681;48.982;8.394;2023-02-13T08:43:49;18.33;;;10.57;;
45970;SDS011;31681;48.982;8.394;2023-02-13T08:46:15;19.70;;;10.67;;
45970;SDS011;31681;48.982;8.394;2023-02-13T08:48:42;20.20;;;11.03;;
45970;SDS011;31681;48.982;8.394;2023-02-13T08:51:08;19.13;;;11.67;;
45970;SDS011;31681;48.982;8.394;2023-02-13T08:53:36;20.17;;;11.50;;
45970;SDS011;31681;48.982;8.394;2023-02-13T08:56:02;22.63;;;13.10;;
45970;SDS011;31681;48.982;8.394;2023-02-13T08:58:28;21.77;;;12.03;;
45970;SDS011;31681;48.982;8.394;2023-02-13T09:00:53;22.60;;;13.57;;
45970;SDS011;31681;48.982;8.394;2023-02-13T09:03:19;25.03;;;12.70;;
45970;SDS011;31681;48.982;8.394;2023-02-13T09:05:44;26.73;;;12.90;;
45970;SDS011;31681;48.982;8.394;2023-02-13T09:08:11;28.30;;;13.40;;
45970;SDS011;31681;48.982;8.394;2023-02-13T09:10:38;28.83;;;14.30;;
45970;SDS011;31681;48.982;8.394;2023-02-13T09:13:04;32.03;;;15.67;;
45970;SDS011;31681;48.982;8.394;2023-02-13T09:15:30;34.07;;;14.77;;
45970;SDS011;31681;48.982;8.394;2023-02-13T09:17:57;35.87;;;14.83;;
45970;SDS011;31681;48.982;8.394;2023-02-13T09:20:22;35.13;;;16.60;;
45970;SDS011;31681;48.982;8.394;2023-02-13T09:22:48;35.30;;;16.00;;
45970;SDS011;31681;48.982;8.394;2023-02-13T09:25:14;34.10;;;16.33;;
45970;SDS011;31681;48.982;8.394;2023-02-13T09:27:39;38.10;;;17.40;;
45970;SDS011;31681;48.982;8.394;2023-02-13T09:30:06;39.93;;;16.47;;
45970;SDS011;31681;48.982;8.394;2023-02-13T09:32:33;38.63;;;16.00;;
45970;SDS011;31681;48.982;8.394;2023-02-13T09:34:59;40.03;;;17.70;;
45970;SDS011;31681;48.982;8.394;2023-02-13T09:37:25;41.53;;;16.77;;
45970;SDS011;31681;48.982;8.394;2023-02-13T09:39:51;41.27;;;17.77;;
45970;SDS011;31681;48.982;8.394;2023-02-13T09:42:18;43.77;;;19.33;;
45970;SDS011;31681;48.982;8.394;2023-02-13T09:44:58;34.80;;;16.10;;
45970;SDS011;31681;48.982;8.394;2023-02-13T09:47:28;40.07;;;17.73;;
45970;SDS011;31681;48.982;8.394;2023-02-13T09:50:12;41.93;;;18.33;;
45970;SDS011;31681;48.982;8.394;2023-02-13T09:52:43;35.07;;;17.27;;
45970;SDS011;31681;48.982;8.394;2023-02-13T09:55:14;40.47;;;18.87;;
45970;SDS011;31681;48.982;8.394;2023-02-13T10:00:43;35.00;;;16.17;;
45970;SDS011;31681;48.982;8.394;2023-02-13T10:03:26;36.00;;;16.90;;
45970;SDS011;31681;48.982;8.394;2023-02-13T10:08:48;30.43;;;16.27;;
45970;SDS011;31681;48.982;8.394;2023-02-13T10:16:35;36.97;;;18.73;;
45970;SDS011;31681;48.982;8.394;2023-02-13T10:22:00;42.03;;;19.80;;
45970;SDS011;31681;48.982;8.394;2023-02-13T10:24:34;40.33;;;20.23;;
45970;SDS011;31681;48.982;8.394;2023-02-13T10:27:19;45.57;;;20.43;;
45970;SDS011;31681;48.982;8.394;2023-02-13T10:37:59;43.33;;;21.00;;
45970;SDS011;31681;48.982;8.394;2023-02-13T10:40:37;42.37;;;20.17;;
45970;SDS011;31681;48.982;8.394;2023-02-13T10:43:07;48.97;;;21.03;;
45970;SDS011;31681;48.982;8.394;2023-02-13T10:45:44;44.03;;;19.70;;
45970;SDS011;31681;48.982;8.394;2023-02-13T10:55:45;45.13;;;20.77;;
45970;SDS011;31681;48.982;8.394;2023-02-13T11:01:18;44.00;;;20.50;;
45970;SDS011;31681;48.982;8.394;2023-02-13T11:04:11;39.33;;;19.63;;
45970;SDS011;31681;48.982;8.394;2023-02-13T11:06:42;41.30;;;20.77;;
45970;SDS011;31681;48.982;8.394;2023-02-13T11:09:20;37.67;;;18.67;;
45970;SDS011;31681;48.982;8.394;2023-02-13T11:11:46;45.60;;;19.77;;
45970;SDS011;31681;48.982;8.394;2023-02-13T11:14:12;39.93;;;18.97;;
45970;SDS011;31681;48.982;8.394;2023-02-13T11:16:47;37.97;;;19.37;;
45970;SDS011;31681;48.982;8.394;2023-02-13T11:19:22;37.30;;;18.53;;
45970;SDS011;31681;48.982;8.394;2023-02-13T11:21:51;41.03;;;19.83;;
45970;SDS011;31681;48.982;8.394;2023-02-13T11:24:21;34.90;;;16.90;;
45970;SDS011;31681;48.982;8.394;2023-02-13T11:26:49;34.03;;;17.77;;
45970;SDS011;31681;48.982;8.394;2023-02-13T11:29:26;31.40;;;17.03;;
45970;SDS011;31681;48.982;8.394;2023-02-13T11:34:41;35.93;;;18.03;;
45970;SDS011;31681;48.982;8.394;2023-02-13T11:37:14;35.30;;;17.83;;
45970;SDS011;31681;48.982;8.394;2023-02-13T11:39:47;31.90;;;17.10;;
45970;SDS011;31681;48.982;8.394;2023-02-13T11:44:40;30.40;;;15.77;;
45970;SDS011;31681;48.982;8.394;2023-02-13T11:47:07;30.60;;;16.10;;
45970;SDS011;31681;48.982;8.394;2023-02-13T11:49:34;32.50;;;16.13;;
45970;SDS011;31681;48.982;8.394;2023-02-13T11:52:45;34.13;;;16.90;;
45970;SDS011;31681;48.982;8.394;2023-02-13T11:54:57;31.00;;;15.67;;
45970;SDS011;31681;48.982;8.394;2023-02-13T12:00:24;31.33;;;17.23;;
45970;SDS011;31681;48.982;8.394;2023-02-13T12:03:02;31.40;;;16.73;;
45970;SDS011;31681;48.982;8.394;2023-02-13T12:08:26;34.23;;;17.90;;
45970;SDS011;31681;48.982;8.394;2023-02-13T12:10:52;30.07;;;16.27;;
45970;SDS011;31681;48.982;8.394;2023-02-13T12:16:05;32.03;;;16.83;;
45970;SDS011;31681;48.982;8.394;2023-02-13T12:18:41;29.83;;;17.43;;
45970;SDS011;31681;48.982;8.394;2023-02-13T12:24:03;28.03;;;15.57;;
45970;SDS011;31681;48.982;8.394;2023-02-13T12:26:40;30.70;;;16.23;;
45970;SDS011;31681;48.982;8.394;2023-02-13T12:29:15;28.20;;;15.60;;
45970;SDS011;31681;48.982;8.394;2023-02-13T12:32:17;26.87;;;15.27;;
45970;SDS011;31681;48.982;8.394;2023-02-13T12:40:01;31.10;;;15.40;;
45970;SDS011;31681;48.982;8.394;2023-02-13T12:48:03;28.13;;;15.07;;
45970;SDS011;31681;48.982;8.394;2023-02-13T12:59:36;27.53;;;16.37;;
45970;SDS011;31681;48.982;8.394;2023-02-13T13:02:18;24.30;;;14.23;;
45970;SDS011;31681;48.982;8.394;2023-02-13T13:05:23;22.27;;;14.27;;
45970;SDS011;31681;48.982;8.394;2023-02-13T13:14:05;23.67;;;13.53;;
45970;SDS011;31681;48.982;8.394;2023-02-13T13:24:54;23.33;;;14.27;;
45970;SDS011;31681;48.982;8.394;2023-02-13T13:27:36;26.03;;;15.20;;
45970;SDS011;31681;48.982;8.394;2023-02-13T13:30:23;23.80;;;13.67;;
45970;SDS011;31681;48.982;8.394;2023-02-13T13:33:03;22.10;;;14.30;;
45970;SDS011;31681;48.982;8.394;2023-02-13T13:35:36;23.33;;;14.13;;
45970;SDS011;31681;48.982;8.394;2023-02-13T13:38:10;26.07;;;14.17;;
45970;SDS011;31681;48.982;8.394;2023-02-13T13:40:57;25.60;;;14.23;;
45970;SDS011;31681;48.982;8.394;2023-02-13T13:49:14;22.02;;;14.05;;
45970;SDS011;31681;48.982;8.394;2023-02-13T13:51:49;25.23;;;14.57;;
45970;SDS011;31681;48.982;8.394;2023-02-13T13:54:16;25.33;;;14.93;;
45970;SDS011;31681;48.982;8.394;2023-02-13T14:07:33;24.88;;;14.77;;
45970;SDS011;31681;48.982;8.394;2023-02-13T14:10:01;24.05;;;14.95;;
45970;SDS011;31681;48.982;8.394;2023-02-13T14:14:52;24.55;;;15.40;;
45970;SDS011;31681;48.982;8.394;2023-02-13T14:23:07;29.17;;;16.90;;
45970;SDS011;31681;48.982;8.394;2023-02-13T14:25:43;33.53;;;16.73;;
45970;SDS011;31681;48.982;8.394;2023-02-13T14:28:14;27.65;;;16.50;;
45970;SDS011;31681;48.982;8.394;2023-02-13T14:30:48;23.38;;;14.85;;
45970;SDS011;31681;48.982;8.394;2023-02-13T14:33:26;26.40;;;14.88;;
45970;SDS011;31681;48.982;8.394;2023-02-13T14:35:59;25.10;;;15.82;;
45970;SDS011;31681;48.982;8.394;2023-02-13T14:38:53;34.05;;;16.42;;
45970;SDS011;31681;48.982;8.394;2023-02-13T14:44:24;25.50;;;16.08;;
45970;SDS011;31681;48.982;8.394;2023-02-13T14:47:05;30.00;;;16.55;;
45970;SDS011;31681;48.982;8.394;2023-02-13T14:49:52;28.63;;;16.48;;
45970;SDS011;31681;48.982;8.394;2023-02-13T14:52:41;27.55;;;16.25;;
45970;SDS011;31681;48.982;8.394;2023-02-13T14:55:12;31.05;;;17.20;;
45970;SDS011;31681;48.982;8.394;2023-02-13T14:57:45;28.50;;;16.80;;
45970;SDS011;31681;48.982;8.394;2023-02-13T15:06:02;26.02;;;15.35;;
45970;SDS011;31681;48.982;8.394;2023-02-13T15:08:35;29.40;;;15.93;;
45970;SDS011;31681;48.982;8.394;2023-02-13T15:11:07;23.83;;;15.60;;
45970;SDS011;31681;48.982;8.394;2023-02-13T15:13:52;27.17;;;15.48;;
45970;SDS011;31681;48.982;8.394;2023-02-13T15:16:18;25.90;;;16.10;;
45970;SDS011;31681;48.982;8.394;2023-02-13T15:18:44;24.63;;;15.18;;
45970;SDS011;31681;48.982;8.394;2023-02-13T15:21:14;29.13;;;15.77;;
45970;SDS011;31681;48.982;8.394;2023-02-13T15:23:42;26.70;;;15.38;;
45970;SDS011;31681;48.982;8.394;2023-02-13T15:26:20;25.17;;;15.67;;
45970;SDS011;31681;48.982;8.394;2023-02-13T15:31:23;25.53;;;15.13;;
45970;SDS011;31681;48.982;8.394;2023-02-13T15:33:49;22.83;;;14.37;;
45970;SDS011;31681;48.982;8.394;2023-02-13T15:36:23;26.57;;;15.80;;
45970;SDS011;31681;48.982;8.394;2023-02-13T15:39:00;24.17;;;15.32;;
45970;SDS011;31681;48.982;8.394;2023-02-13T15:41:32;26.27;;;15.53;;
45970;SDS011;31681;48.982;8.394;2023-02-13T15:44:01;23.40;;;15.33;;
45970;SDS011;31681;48.982;8.394;2023-02-13T15:46:28;25.17;;;15.03;;
45970;SDS011;31681;48.982;8.394;2023-02-13T15:48:58;27.97;;;16.00;;
45970;SDS011;31681;48.982;8.394;2023-02-13T15:51:32;26.00;;;15.10;;
45970;SDS011;31681;48.982;8.394;2023-02-13T15:53:59;24.30;;;15.53;;
45970;SDS011;31681;48.982;8.394;2023-02-13T15:56:31;28.27;;;17.33;;
45970;SDS011;31681;48.982;8.394;2023-02-13T15:58:59;31.10;;;16.93;;
45970;SDS011;31681;48.982;8.394;2023-02-13T16:01:25;29.90;;;16.73;;
45970;SDS011;31681;48.982;8.394;2023-02-13T16:03:59;28.10;;;15.90;;
45970;SDS011;31681;48.982;8.394;2023-02-13T16:06:29;27.57;;;16.30;;
45970;SDS011;31681;48.982;8.394;2023-02-13T16:08:58;33.80;;;17.90;;
45970;SDS011;31681;48.982;8.394;2023-02-13T16:11:27;31.67;;;17.53;;
45970;SDS011;31681;48.982;8.394;2023-02-13T16:14:18;28.90;;;16.77;;
45970;SDS011;31681;48.982;8.394;2023-02-13T16:19:38;31.43;;;16.87;;
45970;SDS011;31681;48.982;8.394;2023-02-13T16:24:43;31.47;;;17.37;;
45970;SDS011;31681;48.982;8.394;2023-02-13T16:27:13;34.17;;;17.23;;
45970;SDS011;31681;48.982;8.394;2023-02-13T16:29:44;31.80;;;17.13;;
45970;SDS011;31681;48.982;8.394;2023-02-13T16:32:17;26.83;;;16.13;;
45970;SDS011;31681;48.982;8.394;2023-02-13T16:34:50;28.13;;;16.47;;
45970;SDS011;31681;48.982;8.394;2023-02-13T16:37:30;30.43;;;16.43;;
45970;SDS011;31681;48.982;8.394;2023-02-13T16:40:18;28.30;;;16.17;;
45970;SDS011;31681;48.982;8.394;2023-02-13T16:46:36;26.30;;;14.73;;
45970;SDS011;31681;48.982;8.394;2023-02-13T16:56:40;27.20;;;15.87;;
45970;SDS011;31681;48.982;8.394;2023-02-13T17:07:18;31.10;;;17.17;;
45970;SDS011;31681;48.982;8.394;2023-02-13T17:09:50;32.97;;;16.90;;
45970;SDS011;31681;48.982;8.394;2023-02-13T17:12:17;29.70;;;16.43;;
45970;SDS011;31681;48.982;8.394;2023-02-13T17:14:44;26.57;;;16.47;;
45970;SDS011;31681;48.982;8.394;2023-02-13T17:17:14;29.13;;;16.73;;
45970;SDS011;31681;48.982;8.394;2023-02-13T17:19:42;29.07;;;16.37;;
45970;SDS011;31681;48.982;8.394;2023-02-13T17:22:12;30.10;;;16.50;;
45970;SDS011;31681;48.982;8.394;2023-02-13T17:25:03;30.60;;;16.67;;
45970;SDS011;31681;48.982;8.394;2023-02-13T17:27:36;28.73;;;15.83;;
45970;SDS011;31681;48.982;8.394;2023-02-13T17:30:01;30.07;;;16.70;;
45970;SDS011;31681;48.982;8.394;2023-02-13T17:32:27;34.57;;;17.40;;
45970;SDS011;31681;48.982;8.394;2023-02-13T17:34:54;32.57;;;16.87;;
45970;SDS011;31681;48.982;8.394;2023-02-13T17:37:23;26.03;;;15.83;;
45970;SDS011;31681;48.982;8.394;2023-02-13T17:39:50;30.43;;;16.30;;
45970;SDS011;31681;48.982;8.394;2023-02-13T17:42:18;31.73;;;16.03;;
45970;SDS011;31681;48.982;8.394;2023-02-13T17:44:49;30.30;;;15.90;;
45970;SDS011;31681;48.982;8.394;2023-02-13T17:47:15;32.07;;;16.93;;